Time;durP1;ratioP1;P1;durP2;ratioP2;P2;SDS_P1;SDS_P2;PMS_P1;PMS_P2;Temp;Humidity;BMP_temperature;BMP_pressure;BME280_temperature;BME280_humidity;BME280_pressure;Samples;Min_cycle;Max_cycle;Signal;HPM_P1;HPM_P2
2021/10/23 00:00:10;;;;;;;1.23;0.98;;;;;;;10.40;65.83;101249.69;5032914;28;20116;-49
2021/10/23 00:02:35;;;;;;;1.13;0.95;;;;;;;10.39;65.78;101250.59;5032794;28;20029;-49
2021/10/23 00:05:01;;;;;;;2.00;1.30;;;;;;;10.41;65.82;101263.78;5031821;28;20056;-49
2021/10/23 00:07:26;;;;;;;2.20;1.55;;;;;;;10.39;66.06;101255.84;5032265;28;20029;-49
2021/10/23 00:09:53;;;;;;;1.15;1.00;;;;;;;10.39;66.21;101258.50;5032351;28;20056;-49
2021/10/23 00:12:18;;;;;;;1.77;1.15;;;;;;;10.39;66.01;101262.88;5032491;28;20068;-49
2021/10/23 00:14:43;;;;;;;2.42;1.20;;;;;;;10.38;66.12;101267.25;5032493;28;20021;-49
2021/10/23 00:17:09;;;;;;;2.90;1.20;;;;;;;10.36;66.01;101263.75;5032998;28;20508;-49
2021/10/23 00:19:34;;;;;;;1.20;1.00;;;;;;;10.38;66.13;101269.88;5032499;28;20414;-49
2021/10/23 00:22:00;;;;;;;1.23;1.00;;;;;;;10.36;65.83;101271.66;5031688;28;20061;-49
2021/10/23 00:24:25;;;;;;;1.45;1.25;;;;;;;10.37;65.98;101276.06;5032216;28;20037;-49
2021/10/23 00:26:50;;;;;;;2.17;1.23;;;;;;;10.36;66.23;101281.31;5031921;28;20037;-49
2021/10/23 00:29:16;;;;;;;3.88;1.60;;;;;;;10.35;66.21;101296.28;5032712;28;20061;-49
2021/10/23 00:31:41;;;;;;;4.10;1.85;;;;;;;10.33;65.80;101298.03;5032272;28;20056;-49
2021/10/23 00:34:13;;;;;;;4.78;1.90;;;;;;;10.34;65.93;101301.56;5030851;28;20069;-49
2021/10/23 00:36:39;;;;;;;2.08;1.33;;;;;;;10.33;66.13;101297.13;5030826;28;20013;-49
2021/10/23 00:39:04;;;;;;;2.50;2.20;;;;;;;10.32;65.98;101304.19;5028532;28;20020;-49
2021/10/23 00:41:29;;;;;;;2.88;1.30;;;;;;;10.33;65.93;101303.28;5025609;28;20060;-49
2021/10/23 00:43:55;;;;;;;3.50;1.60;;;;;;;10.32;65.96;101309.47;5022748;28;20032;-49
2021/10/23 00:46:20;;;;;;;2.67;1.33;;;;;;;10.31;66.14;101299.78;5023727;28;20485;-49
2021/10/23 00:48:45;;;;;;;2.40;1.38;;;;;;;10.30;65.96;101302.44;5027621;28;20052;-49
2021/10/23 00:51:16;;;;;;;3.90;1.38;;;;;;;10.30;66.21;101302.44;5021482;28;20025;-49
2021/10/23 00:53:42;;;;;;;3.77;1.53;;;;;;;10.30;65.89;101307.69;5025468;28;20116;-49
2021/10/23 00:56:07;;;;;;;3.13;1.65;;;;;;;10.28;66.17;101299.78;5030532;28;20330;-49
2021/10/23 00:58:33;;;;;;;2.58;1.40;;;;;;;10.30;65.92;101313.84;5026823;28;20132;-49
2021/10/23 01:00:58;;;;;;;2.30;1.75;;;;;;;10.29;66.07;101316.47;5031496;28;20124;-49
2021/10/23 01:03:24;;;;;;;2.33;1.70;;;;;;;10.26;66.20;101307.69;5030367;28;20066;-49
2021/10/23 01:05:49;;;;;;;1.40;1.30;;;;;;;10.29;65.89;101320.00;5027379;28;20039;-49
2021/10/23 01:08:15;;;;;;;3.05;1.95;;;;;;;10.27;65.85;101309.44;5026991;28;20383;-49
2021/10/23 01:10:41;;;;;;;2.42;1.60;;;;;;;10.26;66.22;101314.69;5030464;28;20051;-49
2021/10/23 01:13:06;;;;;;;2.63;1.30;;;;;;;10.30;65.71;101319.09;5023630;28;20024;-49
2021/10/23 01:15:33;;;;;;;2.58;1.80;;;;;;;10.25;66.12;101316.47;5031546;28;20057;-49
2021/10/23 01:18:01;;;;;;;4.63;1.63;;;;;;;10.23;66.09;101320.84;5028086;28;20048;-49
2021/10/23 01:20:27;;;;;;;3.00;2.28;;;;;;;10.23;66.24;101322.59;5027560;28;20394;-49
2021/10/23 01:22:56;;;;;;;2.13;1.60;;;;;;;10.23;65.95;101327.88;5030222;28;20037;-49
2021/10/23 01:25:24;;;;;;;4.00;1.75;;;;;;;10.24;66.09;101329.66;5030905;28;20021;-49
2021/10/23 01:27:54;;;;;;;3.05;1.40;;;;;;;10.24;65.76;101329.66;5031130;28;20033;-49
2021/10/23 01:30:20;;;;;;;4.97;1.70;;;;;;;10.23;65.95;101330.50;5030280;28;20072;-49
2021/10/23 01:32:45;;;;;;;3.08;1.60;;;;;;;10.21;66.20;101329.63;5031008;28;20029;-49
2021/10/23 01:35:11;;;;;;;2.38;1.42;;;;;;;10.21;66.13;101329.63;5030841;28;20106;-49
2021/10/23 01:37:42;;;;;;;4.15;1.58;;;;;;;10.18;66.19;101329.63;5031030;28;20029;-49
2021/10/23 01:40:14;;;;;;;4.03;1.52;;;;;;;10.17;65.94;101339.28;5031370;28;20417;-49
2021/10/23 01:42:39;;;;;;;2.97;1.50;;;;;;;10.17;66.37;101333.13;5011636;28;20025;-49
2021/10/23 01:45:07;;;;;;;4.22;1.55;;;;;;;10.18;66.06;101345.44;5023980;28;20800;-49
2021/10/23 01:47:32;;;;;;;2.45;1.50;;;;;;;10.15;66.13;101346.31;5031265;28;20043;-49
2021/10/23 01:49:57;;;;;;;3.30;1.40;;;;;;;10.16;65.92;101353.34;5027881;28;20037;-49
2021/10/23 01:52:23;;;;;;;1.88;1.65;;;;;;;10.16;65.88;101357.72;5028315;28;20030;-49
2021/10/23 01:54:48;;;;;;;4.65;1.67;;;;;;;10.12;66.05;101352.47;5024099;28;20021;-49
2021/10/23 01:57:14;;;;;;;1.80;1.30;;;;;;;10.14;65.98;101358.59;5031057;28;20030;-49
2021/10/23 01:59:39;;;;;;;3.30;1.70;;;;;;;10.13;65.91;101359.50;5020142;28;20029;-49
2021/10/23 02:02:04;;;;;;;2.97;1.40;;;;;;;10.11;66.01;101363.84;5026518;28;20026;-49
2021/10/23 02:04:30;;;;;;;3.33;1.60;;;;;;;10.12;66.00;101357.72;5016118;28;20100;-49
2021/10/23 02:06:55;;;;;;;3.25;1.70;;;;;;;10.13;66.04;101363.88;5028166;28;20049;-49
2021/10/23 02:09:20;;;;;;;3.60;1.40;;;;;;;10.12;66.13;101363.00;5031209;28;20431;-49
2021/10/23 02:11:46;;;;;;;3.65;1.83;;;;;;;10.11;66.09;101361.22;5022925;28;20521;-49
2021/10/23 02:14:11;;;;;;;4.80;1.70;;;;;;;10.11;66.05;101366.50;5032642;28;20453;-49
2021/10/23 02:16:37;;;;;;;2.55;1.58;;;;;;;10.11;65.91;101358.59;5034792;28;20366;-49
2021/10/23 02:19:03;;;;;;;3.85;2.40;;;;;;;10.10;65.94;101363.84;5034409;28;20028;-49
2021/10/23 02:21:28;;;;;;;4.53;2.13;;;;;;;10.12;65.86;101370.03;5030843;28;20116;-49
2021/10/23 02:23:53;;;;;;;3.25;1.35;;;;;;;10.08;66.02;101366.50;5031184;28;20440;-49
2021/10/23 02:26:19;;;;;;;3.50;1.58;;;;;;;10.10;66.04;101370.00;5022640;28;20029;-49
2021/10/23 02:28:44;;;;;;;1.92;1.35;;;;;;;10.08;65.82;101370.88;5020768;28;20049;-49
2021/10/23 02:31:09;;;;;;;2.90;1.60;;;;;;;10.08;66.06;101370.88;5034345;28;20060;-49
2021/10/23 02:33:34;;;;;;;1.80;1.40;;;;;;;10.09;65.92;101380.53;5032411;28;20022;-49
2021/10/23 02:36:00;;;;;;;5.35;1.73;;;;;;;10.07;65.93;101374.41;5033129;28;20033;-49
2021/10/23 02:38:25;;;;;;;3.83;1.58;;;;;;;10.06;66.01;101384.06;5032398;28;20029;-49
2021/10/23 02:40:51;;;;;;;2.88;1.60;;;;;;;10.07;65.84;101391.06;5034544;28;20045;-49
2021/10/23 02:43:16;;;;;;;3.63;1.40;;;;;;;10.05;65.76;101379.66;5034071;28;20033;-49
2021/10/23 02:45:41;;;;;;;2.92;1.60;;;;;;;10.07;65.75;101393.72;5033635;28;20029;-49
2021/10/23 02:48:07;;;;;;;4.78;1.45;;;;;;;10.04;65.93;101392.84;5033968;28;20408;-49
2021/10/23 02:50:32;;;;;;;2.53;1.30;;;;;;;10.04;65.99;101398.97;5030279;28;20022;-49
2021/10/23 02:52:57;;;;;;;2.78;1.98;;;;;;;10.05;65.69;101403.38;5032550;28;20052;-49
2021/10/23 02:55:23;;;;;;;2.60;1.63;;;;;;;10.05;65.94;101406.03;5032954;28;20114;-49
2021/10/23 02:57:48;;;;;;;2.22;1.90;;;;;;;10.05;65.66;101403.38;5034019;28;20044;-49
2021/10/23 03:00:14;;;;;;;3.13;1.60;;;;;;;10.04;65.88;101401.59;5032601;28;20018;-49
2021/10/23 03:02:39;;;;;;;3.08;1.40;;;;;;;10.02;65.97;101408.63;5034167;28;20495;-49
2021/10/23 03:05:06;;;;;;;4.53;1.52;;;;;;;10.04;65.68;101411.28;5034035;28;20052;-49
2021/10/23 03:07:31;;;;;;;1.92;1.67;;;;;;;10.03;65.83;101409.53;5034388;28;20049;-49
2021/10/23 03:09:57;;;;;;;3.83;2.30;;;;;;;10.03;65.80;101418.28;5033393;28;20107;-49
2021/10/23 03:12:22;;;;;;;3.30;2.00;;;;;;;10.01;65.76;101422.69;5032473;28;20061;-49
2021/10/23 03:14:47;;;;;;;2.80;1.75;;;;;;;9.99;65.85;101422.69;5031426;28;20029;-49
2021/10/23 03:17:13;;;;;;;2.60;1.70;;;;;;;9.99;65.83;101422.69;5029976;28;20489;-49
2021/10/23 03:19:41;;;;;;;2.63;1.50;;;;;;;9.98;66.03;101434.06;5033362;28;20079;-49
2021/10/23 03:22:06;;;;;;;3.42;1.80;;;;;;;9.97;66.04;101434.09;5033896;28;20520;-49
2021/10/23 03:24:32;;;;;;;3.45;1.98;;;;;;;9.98;66.04;101434.06;5020250;28;20041;-49
2021/10/23 03:26:57;;;;;;;5.20;1.88;;;;;;;9.98;66.07;101434.06;5014986;28;20026;-49
2021/10/23 03:29:22;;;;;;;3.28;1.50;;;;;;;9.97;65.77;101437.59;5031708;28;20037;-49
2021/10/23 03:31:48;;;;;;;3.28;1.42;;;;;;;9.96;66.02;101437.56;5033291;28;20131;-49
2021/10/23 03:34:15;;;;;;;4.63;1.30;;;;;;;9.96;66.04;101445.47;5033376;28;20071;-48
2021/10/23 03:36:40;;;;;;;2.05;1.17;;;;;;;9.95;65.84;101454.28;5033267;28;20485;-49
2021/10/23 03:39:05;;;;;;;3.45;2.10;;;;;;;9.94;65.83;101452.53;5032052;28;20032;-49
2021/10/23 03:41:31;;;;;;;3.90;1.63;;;;;;;9.92;66.01;101451.63;5033023;28;20032;-49
2021/10/23 03:43:57;;;;;;;3.90;1.55;;;;;;;9.94;65.92;101452.53;5033119;28;20029;-49
2021/10/23 03:46:23;;;;;;;2.40;1.50;;;;;;;9.93;65.84;101466.53;5031580;28;20029;-49
2021/10/23 03:48:48;;;;;;;2.42;1.60;;;;;;;9.93;66.03;101469.19;5028990;28;20108;-49
2021/10/23 03:51:22;;;;;;;3.65;1.60;;;;;;;9.92;65.95;101470.06;5031704;28;20032;-49
2021/10/23 03:53:47;;;;;;;3.00;1.33;;;;;;;9.93;66.13;101471.81;5031975;28;20493;-49
2021/10/23 03:56:13;;;;;;;2.58;1.65;;;;;;;9.93;65.67;101466.53;5032334;28;20026;-49
2021/10/23 03:58:38;;;;;;;3.70;1.85;;;;;;;9.91;65.97;101473.56;5033061;28;20028;-49
2021/10/23 04:01:03;;;;;;;3.78;2.00;;;;;;;9.92;65.64;101480.59;5031585;28;20032;-49
2021/10/23 04:03:29;;;;;;;3.90;1.90;;;;;;;9.90;66.09;101475.31;5031686;28;20392;-49
2021/10/23 04:05:54;;;;;;;5.07;3.20;;;;;;;9.92;65.77;101483.22;5032682;28;20057;-49
2021/10/23 04:08:19;;;;;;;3.90;1.50;;;;;;;9.88;65.79;101483.22;5032816;28;20021;-49
2021/10/23 04:10:45;;;;;;;2.95;1.88;;;;;;;9.88;65.95;101488.47;5031771;28;20029;-49
2021/10/23 04:13:11;;;;;;;3.10;1.67;;;;;;;9.87;65.78;101484.09;5030899;28;20025;-49
2021/10/23 04:15:36;;;;;;;3.67;1.88;;;;;;;9.85;66.08;101483.22;5032387;28;20067;-49
2021/10/23 04:18:02;;;;;;;1.95;1.75;;;;;;;9.87;66.09;101492.00;5031253;28;20041;-49
2021/10/23 04:20:27;;;;;;;4.75;2.03;;;;;;;9.86;65.85;101487.59;5031937;28;20065;-49
2021/10/23 04:22:53;;;;;;;1.75;1.52;;;;;;;9.85;65.78;101493.75;5032858;28;20456;-49
2021/10/23 04:25:18;;;;;;;4.03;1.60;;;;;;;9.85;65.97;101496.38;5031043;28;20108;-49
2021/10/23 04:27:43;;;;;;;5.60;2.30;;;;;;;9.86;65.76;101492.88;5031146;28;20041;-49
2021/10/23 04:30:09;;;;;;;3.45;2.03;;;;;;;9.85;65.81;101491.13;5032190;28;20396;-49
2021/10/23 04:32:34;;;;;;;4.10;1.88;;;;;;;9.84;65.81;101485.84;5032385;28;20033;-49
2021/10/23 04:35:00;;;;;;;5.03;1.80;;;;;;;9.84;65.90;101484.06;5030876;28;20033;-49
2021/10/23 04:37:25;;;;;;;3.35;1.77;;;;;;;9.84;66.00;101494.59;5033554;28;20055;-49
2021/10/23 04:39:50;;;;;;;4.65;2.25;;;;;;;9.82;66.00;101496.34;5033148;28;20029;-49
2021/10/23 04:42:16;;;;;;;2.85;2.00;;;;;;;9.82;65.94;101495.47;5023009;28;20429;-49
2021/10/23 04:44:41;;;;;;;3.83;2.20;;;;;;;9.82;65.82;101501.63;5019955;28;20445;-49
2021/10/23 04:47:06;;;;;;;2.58;1.83;;;;;;;9.82;65.60;101506.91;5015568;28;20038;-49
2021/10/23 04:49:31;;;;;;;5.47;1.55;;;;;;;9.81;65.73;101502.50;5027303;28;20486;-49
2021/10/23 04:51:57;;;;;;;2.20;1.63;;;;;;;9.81;65.60;101496.34;5028720;28;20034;-49
2021/10/23 04:54:22;;;;;;;4.35;1.95;;;;;;;9.83;65.64;101484.03;5030981;28;20021;-49
2021/10/23 04:56:47;;;;;;;4.45;1.90;;;;;;;9.82;65.64;101491.09;5034030;28;20025;-49
2021/10/23 04:59:13;;;;;;;3.72;1.83;;;;;;;9.83;65.78;101497.22;5042482;28;20498;-49
2021/10/23 05:01:38;;;;;;;2.55;1.98;;;;;;;9.82;65.82;101488.47;5031264;28;20033;-48
2021/10/23 05:04:03;;;;;;;5.45;2.17;;;;;;;9.80;65.75;101497.22;5031349;28;20022;-49
2021/10/23 05:06:29;;;;;;;4.10;1.80;;;;;;;9.79;65.75;101492.81;5028270;28;20033;-49
2021/10/23 05:08:54;;;;;;;2.00;1.50;;;;;;;9.79;65.87;101491.06;5026225;28;20026;-49
2021/10/23 05:11:19;;;;;;;3.78;1.95;;;;;;;9.78;65.78;101478.78;5031230;28;20069;-49
2021/10/23 05:13:45;;;;;;;3.25;1.98;;;;;;;9.81;65.80;101493.72;5038048;28;20515;-49
2021/10/23 05:16:10;;;;;;;2.40;1.58;;;;;;;9.80;65.59;101498.09;5030119;28;20033;-49
2021/10/23 05:18:35;;;;;;;3.97;1.92;;;;;;;9.81;65.82;101498.97;5023722;28;20025;-49
2021/10/23 05:21:01;;;;;;;5.65;2.40;;;;;;;9.82;65.57;101484.94;5031991;28;20464;-49
2021/10/23 05:23:26;;;;;;;7.25;2.35;;;;;;;9.80;65.74;101482.28;5029510;28;20033;-49
2021/10/23 05:25:51;;;;;;;3.15;2.55;;;;;;;9.79;65.73;101483.16;5026483;28;20033;-49
2021/10/23 05:28:17;;;;;;;3.75;2.47;;;;;;;9.78;65.88;101485.78;5022807;28;20052;-49
2021/10/23 05:30:42;;;;;;;3.10;1.95;;;;;;;9.76;65.58;101491.03;5029818;28;20025;-49
2021/10/23 05:33:08;;;;;;;5.85;2.70;;;;;;;9.76;65.89;101506.84;5031330;28;20053;-49
2021/10/23 05:35:34;;;;;;;3.28;1.80;;;;;;;9.76;65.65;101509.47;5031251;28;20025;-49
2021/10/23 05:37:59;;;;;;;2.47;1.90;;;;;;;9.77;65.62;101523.53;5027557;28;20041;-49
2021/10/23 05:40:24;;;;;;;5.32;2.10;;;;;;;9.76;65.82;101527.91;5017640;28;20034;-49
2021/10/23 05:42:50;;;;;;;2.50;1.70;;;;;;;9.76;65.77;101538.44;5024427;28;20061;-48
2021/10/23 05:45:15;;;;;;;4.28;2.28;;;;;;;9.75;65.64;101531.44;5031103;28;20044;-49
2021/10/23 05:47:40;;;;;;;2.88;2.08;;;;;;;9.76;65.77;101538.44;5034854;28;20029;-48
2021/10/23 05:50:08;;;;;;;4.72;2.40;;;;;;;9.75;65.67;101541.97;5035461;28;20477;-48
2021/10/23 05:52:34;;;;;;;4.85;2.33;;;;;;;9.75;65.80;101540.22;5035183;28;20026;-48
2021/10/23 05:54:59;;;;;;;3.65;1.83;;;;;;;9.74;65.73;101540.22;5034797;28;20488;-48
2021/10/23 05:57:25;;;;;;;4.25;2.30;;;;;;;9.72;65.55;101541.94;5035425;28;20081;-49
2021/10/23 05:59:50;;;;;;;2.20;1.67;;;;;;;9.73;65.86;101543.69;5033498;28;20072;-48
2021/10/23 06:02:25;;;;;;;4.85;2.20;;;;;;;9.70;65.90;101536.66;5034413;28;20067;-49
2021/10/23 06:04:52;;;;;;;3.45;1.80;;;;;;;9.70;65.80;101533.16;5034944;28;20033;-48
2021/10/23 06:07:19;;;;;;;3.42;2.00;;;;;;;9.71;65.71;101542.81;5034181;28;20519;-48
2021/10/23 06:09:47;;;;;;;4.18;2.67;;;;;;;9.68;65.68;101546.31;5025919;28;20497;-49
2021/10/23 06:12:13;;;;;;;1.95;1.70;;;;;;;9.71;65.72;101561.25;5031300;28;20036;-48
2021/10/23 06:14:39;;;;;;;5.47;2.50;;;;;;;9.69;65.80;101550.69;5033209;28;20052;-49
2021/10/23 06:17:07;;;;;;;4.70;2.80;;;;;;;9.68;65.95;101555.94;5024144;28;20021;-48
2021/10/23 06:19:37;;;;;;;2.60;2.13;;;;;;;9.68;65.80;101567.38;5029088;28;20040;-48
2021/10/23 06:22:05;;;;;;;3.05;2.00;;;;;;;9.68;65.67;101577.91;5032174;28;20060;-49
2021/10/23 06:24:30;;;;;;;4.78;1.92;;;;;;;9.69;65.79;101578.78;5034527;28;20071;-49
2021/10/23 06:26:55;;;;;;;3.47;2.60;;;;;;;9.67;65.66;101575.25;5032810;28;20425;-49
2021/10/23 06:29:21;;;;;;;3.60;2.58;;;;;;;9.67;65.78;101580.53;5032071;28;20466;-48
2021/10/23 06:32:23;;;;;;;4.45;2.97;;;;;;;9.67;65.80;101585.81;5034683;28;20021;-48
2021/10/23 06:34:48;;;;;;;3.95;2.47;;;;;;;9.66;65.69;101590.19;5028753;28;20480;-49
2021/10/23 06:37:18;;;;;;;3.80;2.88;;;;;;;9.68;65.68;101603.38;5033525;28;20029;-49
2021/10/23 06:39:43;;;;;;;4.70;2.65;;;;;;;9.66;65.91;101610.34;5034358;28;20021;-49
2021/10/23 06:42:08;;;;;;;4.10;2.30;;;;;;;9.67;65.61;101602.47;5037977;28;20029;-49
2021/10/23 06:44:34;;;;;;;3.75;2.65;;;;;;;9.65;65.88;101614.75;5031719;28;20022;-49
2021/10/23 06:46:59;;;;;;;3.15;2.40;;;;;;;9.64;65.72;101618.28;5014994;28;20029;-49
2021/10/23 06:49:24;;;;;;;3.88;2.40;;;;;;;9.62;65.98;101620.88;5028979;28;20095;-49
2021/10/23 06:51:50;;;;;;;3.13;2.42;;;;;;;9.62;65.99;101626.16;5037585;28;20079;-49
2021/10/23 06:54:15;;;;;;;5.05;3.00;;;;;;;9.62;65.95;101626.16;5033432;28;20025;-48
2021/10/23 06:56:40;;;;;;;4.28;2.63;;;;;;;9.61;65.92;101637.53;5034114;28;20052;-49
2021/10/23 06:59:05;;;;;;;4.63;3.40;;;;;;;9.63;65.82;101645.44;5033142;28;20473;-48
2021/10/23 07:01:31;;;;;;;3.65;2.47;;;;;;;9.63;66.02;101648.09;5028984;28;20122;-49
2021/10/23 07:03:56;;;;;;;3.35;2.83;;;;;;;9.61;66.13;101655.97;5025994;28;20041;-48
2021/10/23 07:06:22;;;;;;;3.42;2.58;;;;;;;9.62;65.89;101651.59;5036899;28;20025;-49
2021/10/23 07:08:47;;;;;;;4.70;2.88;;;;;;;9.62;65.88;101656.88;5032651;28;20129;-48
2021/10/23 07:11:13;;;;;;;3.88;3.30;;;;;;;9.61;65.87;101655.97;5031390;28;20032;-49
2021/10/23 07:13:38;;;;;;;4.78;2.67;;;;;;;9.62;66.11;101663.03;5019034;28;20477;-48
2021/10/23 07:16:03;;;;;;;4.82;2.75;;;;;;;9.61;66.09;101655.97;5033316;28;20112;-48
2021/10/23 07:18:29;;;;;;;5.10;2.40;;;;;;;9.61;65.82;101663.88;5033800;28;20125;-49
2021/10/23 07:20:54;;;;;;;3.38;2.50;;;;;;;9.61;66.26;101670.91;5033692;28;20083;-48
2021/10/23 07:23:19;;;;;;;4.63;2.63;;;;;;;9.60;65.82;101677.03;5032578;28;20064;-48
2021/10/23 07:25:46;;;;;;;5.05;2.22;;;;;;;9.60;66.06;101679.66;5031877;28;20499;-48
2021/10/23 07:28:12;;;;;;;6.95;3.13;;;;;;;9.57;65.85;101683.16;5032894;28;20022;-49
2021/10/23 07:30:37;;;;;;;5.43;2.28;;;;;;;9.59;66.14;101685.81;5030452;28;20029;-49
2021/10/23 07:33:03;;;;;;;5.85;2.72;;;;;;;9.59;66.12;101678.78;5025387;28;20053;-49
2021/10/23 07:35:28;;;;;;;3.20;2.53;;;;;;;9.58;65.95;101679.66;5026933;28;20031;-48
2021/10/23 07:37:53;;;;;;;2.92;2.30;;;;;;;9.59;66.00;101694.59;5035338;28;20500;-48
2021/10/23 07:40:19;;;;;;;5.13;2.40;;;;;;;9.58;65.99;101690.19;5033020;28;20071;-49
2021/10/23 07:42:44;;;;;;;2.50;2.30;;;;;;;9.57;66.05;101701.59;5033934;28;20485;-49
2021/10/23 07:45:12;;;;;;;2.55;2.35;;;;;;;9.57;66.24;101698.94;5028961;28;20026;-49
2021/10/23 07:47:39;;;;;;;2.55;2.10;;;;;;;9.57;66.19;101709.47;5029407;28;20037;-49
2021/10/23 07:50:05;;;;;;;5.95;2.50;;;;;;;9.56;66.07;101715.63;5032589;28;20473;-49
2021/10/23 07:52:31;;;;;;;4.18;2.85;;;;;;;9.57;66.23;101717.38;5030868;28;20039;-49
2021/10/23 07:54:56;;;;;;;5.05;2.60;;;;;;;9.56;66.12;101723.53;5027481;28;20214;-49
2021/10/23 07:57:21;;;;;;;3.38;2.92;;;;;;;9.56;66.08;101734.06;5032534;28;20091;-49
2021/10/23 07:59:50;;;;;;;2.95;2.15;;;;;;;9.57;66.05;101732.31;5028646;28;20431;-49
2021/10/23 08:02:16;;;;;;;4.47;3.03;;;;;;;9.55;66.14;101729.66;5027964;28;20483;-49
2021/10/23 08:04:41;;;;;;;5.95;2.90;;;;;;;9.55;66.09;101731.41;5032616;28;20104;-48
2021/10/23 08:07:06;;;;;;;3.92;2.65;;;;;;;9.55;66.15;101728.78;5032311;28;20040;-48
2021/10/23 08:09:33;;;;;;;5.68;3.08;;;;;;;9.55;66.25;101729.66;5039001;28;20029;-49
2021/10/23 08:11:59;;;;;;;3.00;2.70;;;;;;;9.55;66.25;101739.31;5031509;28;20418;-48
2021/10/23 08:14:25;;;;;;;5.95;3.38;;;;;;;9.54;66.24;101740.19;5032819;28;20029;-49
2021/10/23 08:16:51;;;;;;;3.05;2.60;;;;;;;9.53;66.26;101747.19;5032246;28;20026;-48
2021/10/23 08:19:16;;;;;;;3.00;2.70;;;;;;;9.53;66.28;101752.44;5031728;28;20489;-49
2021/10/23 08:21:42;;;;;;;4.40;3.30;;;;;;;9.54;66.38;101748.09;5035629;28;20072;-49
2021/10/23 08:24:08;;;;;;;10.98;4.20;;;;;;;9.52;66.95;101747.16;5027512;28;20036;-41
2021/10/23 08:26:34;;;;;;;6.53;4.03;;;;;;;9.42;67.06;101748.78;5030503;28;20064;-40
2021/10/23 08:28:59;;;;;;;9.63;4.97;;;;;;;9.37;67.76;101747.00;5013092;28;20049;-40
2021/10/23 08:31:24;;;;;;;9.65;4.78;;;;;;;9.36;67.75;101762.78;5028672;28;20480;-41
2021/10/23 08:33:51;;;;;;;7.10;4.00;;;;;;;9.35;67.98;101754.00;5045302;23;20049;-41
2021/10/23 08:36:17;;;;;;;12.35;4.63;;;;;;;9.35;68.79;101761.00;5041012;28;20103;-41
2021/10/23 08:38:42;;;;;;;11.55;5.80;;;;;;;9.34;68.19;101768.00;5044457;28;20021;-43
2021/10/23 08:41:13;;;;;;;7.07;4.15;;;;;;;9.33;68.80;101768.88;5047497;28;20112;-42
2021/10/23 08:43:41;;;;;;;8.03;3.97;;;;;;;9.30;69.13;101768.84;5038061;28;20673;-42
2021/10/23 08:46:09;;;;;;;11.30;4.20;;;;;;;9.29;69.31;101774.06;5031606;28;20371;-41
2021/10/23 08:48:35;;;;;;;8.85;4.85;;;;;;;9.29;68.92;101767.06;5031908;28;20385;-42
2021/10/23 08:51:02;;;;;;;10.82;4.43;;;;;;;9.29;69.08;101774.97;5027725;28;20043;-42
2021/10/23 08:53:28;;;;;;;8.45;3.97;;;;;;;9.29;68.83;101781.97;5033417;28;20029;-41
2021/10/23 08:55:54;;;;;;;11.13;4.65;;;;;;;9.29;69.39;101790.75;5033668;28;20025;-41
2021/10/23 08:58:19;;;;;;;13.02;4.85;;;;;;;9.28;68.83;101793.38;5046994;28;20017;-41
2021/10/23 09:00:44;;;;;;;9.88;5.95;;;;;;;9.29;69.12;101796.03;5030666;28;20488;-42
2021/10/23 09:03:11;;;;;;;8.68;5.00;;;;;;;9.29;69.81;101803.03;5028680;28;20060;-42
2021/10/23 09:05:37;;;;;;;9.07;4.82;;;;;;;9.28;69.52;101804.81;5029039;28;20029;-42
2021/10/23 09:08:13;;;;;;;8.30;4.97;;;;;;;9.29;69.24;101803.03;5028033;28;20555;-42
2021/10/23 09:10:38;;;;;;;6.88;4.03;;;;;;;9.31;69.45;101811.84;5031505;28;20087;-42
2021/10/23 09:13:05;;;;;;;9.32;4.93;;;;;;;9.29;69.47;101810.94;5032983;28;20026;-42
2021/10/23 09:15:39;;;;;;;7.88;4.55;;;;;;;9.30;69.54;101815.34;5031618;28;20037;-42
2021/10/23 09:18:10;;;;;;;16.73;5.53;;;;;;;9.31;70.37;101817.13;5033741;28;20049;-43
2021/10/23 09:20:37;;;;;;;14.53;5.03;;;;;;;9.22;70.04;101815.22;5037380;28;20029;-43
2021/10/23 09:23:25;;;;;;;11.40;5.18;;;;;;;9.17;70.33;101823.06;5027554;28;20275;-42
2021/10/23 09:25:51;;;;;;;13.55;6.38;;;;;;;9.19;70.29;101817.81;5029071;28;20029;-42
2021/10/23 09:28:27;;;;;;;8.95;6.05;;;;;;;9.21;70.81;101829.25;5030644;28;20424;-42
2021/10/23 09:30:53;;;;;;;10.55;5.57;;;;;;;9.23;70.87;101827.53;5031425;28;20033;-42
2021/10/23 09:33:41;;;;;;;10.40;5.28;;;;;;;9.25;71.02;101831.06;5019921;28;20485;-42
2021/10/23 09:36:06;;;;;;;9.57;5.30;;;;;;;9.25;70.84;101825.81;5024201;28;20029;-42
2021/10/23 09:38:33;;;;;;;9.05;4.82;;;;;;;9.25;70.96;101825.81;5028510;28;20489;-42
2021/10/23 09:41:25;;;;;;;7.75;4.32;;;;;;;9.29;70.75;101827.63;5030706;28;20041;-42
2021/10/23 09:44:11;;;;;;;9.88;4.70;;;;;;;9.32;70.85;101838.22;5017260;28;20033;-42
2021/10/23 09:46:52;;;;;;;7.50;4.63;;;;;;;9.30;70.78;101839.06;5030093;28;20064;-42
2021/10/23 09:49:17;;;;;;;10.93;5.03;;;;;;;9.34;70.64;101851.41;5031656;28;20362;-42
2021/10/23 09:51:42;;;;;;;6.15;4.63;;;;;;;9.39;70.58;101859.34;5017157;28;20060;-42
2021/10/23 09:54:15;;;;;;;7.93;4.30;;;;;;;9.33;70.85;101852.25;5010824;28;20057;-42
2021/10/23 09:56:50;;;;;;;11.18;4.88;;;;;;;9.30;70.96;101845.19;5024657;28;20045;-42
2021/10/23 09:59:26;;;;;;;10.77;4.72;;;;;;;9.33;71.58;101850.50;5031702;28;20427;-43
2021/10/23 10:01:55;;;;;;;11.13;4.93;;;;;;;9.36;71.70;101853.19;5031907;28;20022;-43
2021/10/23 10:04:21;;;;;;;10.70;6.00;;;;;;;9.39;70.98;101848.81;5030406;28;20025;-42
2021/10/23 10:06:49;;;;;;;8.52;4.70;;;;;;;9.42;70.83;101848.88;5030948;28;20679;-43
2021/10/23 10:09:20;;;;;;;6.93;4.47;;;;;;;9.42;71.20;101847.13;5029407;28;20030;-43
2021/10/23 10:11:49;;;;;;;8.32;4.68;;;;;;;9.42;71.22;101851.50;5041235;28;20036;-43
2021/10/23 10:14:16;;;;;;;18.65;5.47;;;;;;;9.45;71.28;101862.06;5030632;28;20108;-43
2021/10/23 10:16:45;;;;;;;12.43;5.25;;;;;;;9.46;71.08;101861.22;5030485;28;20029;-43
2021/10/23 10:19:13;;;;;;;11.55;6.63;;;;;;;9.48;71.38;101859.50;5029255;28;20041;-43
2021/10/23 10:21:40;;;;;;;11.15;5.55;;;;;;;9.48;71.34;101862.13;5030246;28;20036;-43
2021/10/23 10:24:18;;;;;;;12.18;6.32;;;;;;;9.48;71.32;101865.63;5031276;28;20030;-43
2021/10/23 10:27:02;;;;;;;12.85;6.10;;;;;;;9.51;71.36;101862.19;5036049;28;20135;-42
2021/10/23 10:29:44;;;;;;;12.75;5.97;;;;;;;9.53;70.98;101860.44;5032779;28;20061;-41
2021/10/23 10:32:22;;;;;;;8.95;5.25;;;;;;;9.50;71.13;101865.66;5022714;28;20030;-42
2021/10/23 10:40:13;;;;;;;6.47;4.32;;;;;;;9.45;71.19;101870.88;5031139;28;20017;-43
2021/10/23 10:43:13;;;;;;;6.57;4.53;;;;;;;9.45;70.72;101877.88;5031222;28;20371;-43
2021/10/23 10:45:43;;;;;;;8.63;4.38;;;;;;;9.46;71.22;101877.91;4984473;28;20038;-43
2021/10/23 10:48:25;;;;;;;7.32;4.50;;;;;;;9.46;71.01;101877.00;5044804;28;20025;-42
2021/10/23 10:50:51;;;;;;;;;;;;;;;9.46;70.71;101883.16;5034503;28;20041;-43
2021/10/23 10:53:22;;;;;;;9.32;3.58;;;;;;;9.42;71.22;101875.19;5032172;28;19912;-42
2021/10/23 10:55:54;;;;;;;5.47;3.78;;;;;;;9.46;71.19;101882.28;5032574;28;20033;-42
2021/10/23 10:58:21;;;;;;;6.07;4.05;;;;;;;9.47;71.10;101876.16;5029869;28;20032;-42
2021/10/23 11:00:46;;;;;;;11.23;5.03;;;;;;;9.49;70.98;101877.06;5015737;28;20057;-42
2021/10/23 11:03:36;;;;;;;7.80;3.50;;;;;;;9.52;70.48;101879.75;5033627;28;20075;-41
2021/10/23 11:06:33;;;;;;;11.67;4.83;;;;;;;9.52;70.75;101887.66;5032252;28;20083;-42
2021/10/23 11:09:07;;;;;;;8.57;3.40;;;;;;;9.54;70.63;101885.03;5028087;28;20292;-42
2021/10/23 11:11:57;;;;;;;7.60;4.03;;;;;;;9.56;70.52;101884.19;5030008;28;20033;-43
2021/10/23 11:14:27;;;;;;;9.05;4.28;;;;;;;9.54;70.42;101880.63;5030711;28;20104;-42
2021/10/23 11:16:53;;;;;;;8.43;4.73;;;;;;;9.52;70.55;101887.66;5030700;28;20104;-43
2021/10/23 11:19:35;;;;;;;13.02;4.07;;;;;;;9.53;70.41;101889.41;5031305;28;20359;-42
2021/10/23 11:22:02;;;;;;;8.50;4.47;;;;;;;9.53;70.64;101886.78;5030565;28;20060;-43
2021/10/23 11:24:50;;;;;;;17.90;5.07;;;;;;;9.53;70.72;101891.19;5073112;23;20079;-43
2021/10/23 11:27:27;;;;;;;15.93;4.90;;;;;;;9.54;70.36;101892.94;5040545;28;20397;-43
2021/10/23 11:30:03;;;;;;;9.63;3.85;;;;;;;9.54;70.28;101888.53;5044496;28;20082;-43
2021/10/23 11:32:28;;;;;;;11.32;4.70;;;;;;;9.53;70.21;101889.41;5046593;28;20048;-42
2021/10/23 11:34:53;;;;;;;11.32;4.40;;;;;;;9.52;70.00;101886.75;5032559;28;20037;-43